createdAt,value
2022-07-28T00:01:02.778Z,100982.81
2022-07-28T00:03:49.865Z,100975.88
2022-07-28T00:06:36.754Z,100981.06
2022-07-28T00:09:24.987Z,100984.56
2022-07-28T00:12:12.098Z,100983.38
2022-07-28T00:14:59.242Z,100983.88
2022-07-28T00:17:45.917Z,100984.66
2022-07-28T00:20:32.908Z,100975.44
2022-07-28T00:23:20.067Z,100980.56
2022-07-28T00:26:09.721Z,100978.88
2022-07-28T00:28:56.386Z,100983.31
2022-07-28T00:31:43.610Z,100978.03
2022-07-28T00:34:30.611Z,100973.34
2022-07-28T00:37:17.555Z,100982.75
2022-07-28T00:40:05.118Z,100970.38
2022-07-28T00:42:53.285Z,100974.44
2022-07-28T00:45:40.041Z,100972.28
2022-07-28T00:48:26.975Z,100991.34
2022-07-28T00:51:16.361Z,100978.50
2022-07-28T00:54:03.609Z,100982.97
2022-07-28T00:56:50.266Z,100975.16
2022-07-28T00:59:38.660Z,100972.38
2022-07-28T01:02:25.567Z,100979.22
2022-07-28T01:05:14.718Z,100978.66
2022-07-28T01:08:05.032Z,100983.03
2022-07-28T01:10:59.750Z,100972.38
2022-07-28T01:13:55.129Z,100986.03
2022-07-28T01:16:49.933Z,100981.53
2022-07-28T01:19:41.684Z,100977.38
2022-07-28T01:22:32.950Z,100980.84
2022-07-28T01:25:26.685Z,100986.81
2022-07-28T01:28:25.658Z,100978.97
2022-07-28T01:31:20.700Z,100980.41
2022-07-28T01:34:10.648Z,100989.78
2022-07-28T01:37:00.578Z,100983.69
2022-07-28T01:39:53.192Z,100983.31
2022-07-28T01:42:44.588Z,100983.47
2022-07-28T01:45:33.578Z,100976.22
2022-07-28T01:48:24.528Z,100988.91
2022-07-28T01:51:14.453Z,100987.81
2022-07-28T01:54:03.451Z,100978.53
2022-07-28T01:56:52.694Z,100979.06
2022-07-28T01:59:40.691Z,100970.84
2022-07-28T02:02:29.280Z,100975.91
2022-07-28T02:05:21.862Z,100970.53
2022-07-28T02:08:10.587Z,100963.59
2022-07-28T02:11:17.479Z,100965.19
2022-07-28T02:14:05.492Z,100959.13
2022-07-28T02:16:57.087Z,100962.03
2022-07-28T02:19:46.805Z,100966.66
2022-07-28T02:22:35.194Z,100968.25
2022-07-28T02:25:22.749Z,100967.19
2022-07-28T02:28:12.192Z,100973.84
2022-07-28T02:31:02.629Z,100978.28
2022-07-28T02:33:58.479Z,100971.00
2022-07-28T02:36:54.835Z,100980.59
2022-07-28T02:40:00.016Z,100979.41
2022-07-28T02:42:50.009Z,100982.06
2022-07-28T02:45:40.920Z,100981.44
2022-07-28T02:48:30.933Z,100977.53
2022-07-28T02:51:19.606Z,100979.34
2022-07-28T02:54:07.683Z,100984.41
2022-07-28T02:56:57.613Z,100976.41
2022-07-28T02:59:45.805Z,100978.13
2022-07-28T03:02:34.627Z,100982.75
2022-07-28T03:05:22.276Z,100978.81
2022-07-28T03:08:09.746Z,100988.00
2022-07-28T03:11:08.669Z,100990.72
2022-07-28T03:13:56.861Z,100991.44
2022-07-28T03:16:44.649Z,100997.25
2022-07-28T03:19:32.112Z,101001.50
2022-07-28T03:22:19.219Z,100999.53
2022-07-28T03:25:09.278Z,101002.13
2022-07-28T03:27:58.980Z,101003.00
2022-07-28T03:30:51.300Z,100999.06
2022-07-28T03:33:38.191Z,101004.19
2022-07-28T03:36:30.097Z,101007.38
2022-07-28T03:39:19.226Z,101004.34
2022-07-28T03:42:06.710Z,101009.09
2022-07-28T03:44:54.021Z,101016.63
2022-07-28T03:47:50.488Z,101014.28
2022-07-28T03:50:37.506Z,101009.25
2022-07-28T03:53:26.553Z,101007.56
2022-07-28T03:56:13.585Z,101005.38
2022-07-28T03:59:00.651Z,101012.06
2022-07-28T04:01:48.042Z,101007.16
2022-07-28T04:04:36.209Z,101005.34
2022-07-28T04:07:22.938Z,101000.63
2022-07-28T04:10:12.385Z,101000.28
2022-07-28T04:13:00.455Z,101005.03
2022-07-28T04:15:47.090Z,101000.53
2022-07-28T04:18:34.248Z,101009.09
2022-07-28T04:21:22.899Z,101003.63
2022-07-28T04:24:10.492Z,101011.22
2022-07-28T04:26:57.219Z,101010.09
2022-07-28T04:29:44.281Z,101007.97
2022-07-28T04:32:31.412Z,101011.22
2022-07-28T04:35:19.598Z,101015.78
2022-07-28T04:38:08.508Z,101010.84
2022-07-28T04:40:56.132Z,101011.97
2022-07-28T04:43:43.287Z,101008.34
2022-07-28T04:46:30.383Z,101004.63
2022-07-28T04:49:17.164Z,101013.63
2022-07-28T04:52:04.692Z,101014.78
2022-07-28T04:54:52.658Z,101019.03
2022-07-28T04:57:40.005Z,101022.09
2022-07-28T05:00:27.131Z,101018.31
2022-07-28T05:03:13.774Z,101020.88
2022-07-28T05:06:00.813Z,101025.31
2022-07-28T05:08:49.539Z,101016.13
2022-07-28T05:11:37.658Z,101013.69
2022-07-28T05:14:24.331Z,101022.31
2022-07-28T05:17:11.153Z,101025.09
2022-07-28T05:19:58.199Z,101015.09
2022-07-28T05:22:46.844Z,101016.91
2022-07-28T05:25:33.466Z,101021.03
2022-07-28T05:28:21.839Z,101023.78
2022-07-28T05:31:08.917Z,101018.94
2022-07-28T05:33:55.634Z,101014.03
2022-07-28T05:36:42.749Z,101020.97
2022-07-28T05:39:31.745Z,101026.34
2022-07-28T05:42:18.535Z,101027.72
2022-07-28T05:45:16.252Z,101030.09
2022-07-28T05:48:04.427Z,101028.59
2022-07-28T05:50:51.812Z,101029.78
2022-07-28T05:53:38.793Z,101030.50
2022-07-28T05:56:25.617Z,101031.91
2022-07-28T05:59:14.812Z,101029.31
2022-07-28T06:02:03.447Z,101035.47
2022-07-28T06:04:50.138Z,101029.75
2022-07-28T06:07:44.055Z,101043.22
2022-07-28T06:10:52.505Z,101045.34
2022-07-28T06:13:40.233Z,101047.63
2022-07-28T06:16:27.393Z,101044.97
2022-07-28T06:19:15.730Z,101042.63
2022-07-28T06:22:03.692Z,101050.03
2022-07-28T06:24:50.522Z,101045.22
2022-07-28T06:27:37.498Z,101052.22
2022-07-28T06:30:25.036Z,101055.38
2022-07-28T06:33:17.036Z,101046.81
2022-07-28T06:36:05.578Z,101051.81
2022-07-28T06:38:52.397Z,101054.28
2022-07-28T06:41:41.446Z,101053.47
2022-07-28T06:44:48.296Z,101056.00
2022-07-28T06:47:34.939Z,101049.25
2022-07-28T06:50:25.324Z,101055.72
2022-07-28T06:53:15.493Z,101051.75
2022-07-28T06:56:03.840Z,101052.78
2022-07-28T06:58:51.141Z,101050.97
2022-07-28T07:01:37.822Z,101056.50
2022-07-28T07:04:24.911Z,101050.97
2022-07-28T07:07:17.070Z,101047.91
2022-07-28T07:10:06.754Z,101052.75
2022-07-28T07:12:53.461Z,101047.81
2022-07-28T07:15:40.164Z,101045.53
2022-07-28T07:18:27.441Z,101038.19
2022-07-28T07:21:13.952Z,101039.53
2022-07-28T07:24:00.953Z,101034.50
2022-07-28T07:26:49.258Z,101035.38
2022-07-28T07:29:36.062Z,101029.94
2022-07-28T07:32:22.921Z,101022.94
2022-07-28T07:35:10.672Z,101027.91
2022-07-28T07:37:57.488Z,101028.75
2022-07-28T07:40:44.625Z,101026.31
2022-07-28T07:43:32.686Z,101031.13
2022-07-28T07:46:20.077Z,101026.63
2022-07-28T07:49:07.198Z,101029.13
2022-07-28T07:51:54.287Z,101023.00
2022-07-28T07:54:41.794Z,101027.94
2022-07-28T07:57:29.712Z,101034.25
2022-07-28T08:00:28.907Z,101032.69
2022-07-28T08:03:16.814Z,101023.69
2022-07-28T08:06:09.592Z,101028.09
2022-07-28T08:08:56.676Z,101026.06
2022-07-28T08:11:43.645Z,101022.94
2022-07-28T08:14:30.424Z,101028.63
2022-07-28T08:17:22.243Z,101031.25
2022-07-28T08:20:13.335Z,101018.59
2022-07-28T08:23:00.022Z,101018.66
2022-07-28T08:25:47.996Z,101022.50
2022-07-28T08:28:34.774Z,101021.91
2022-07-28T08:31:22.514Z,101013.03
2022-07-28T08:34:31.322Z,101016.31
2022-07-28T08:37:17.708Z,101019.88
2022-07-28T08:40:06.666Z,101014.44
2022-07-28T08:43:01.151Z,101008.25
2022-07-28T08:45:49.065Z,101013.22
2022-07-28T08:48:38.942Z,101010.31
2022-07-28T08:51:28.893Z,101012.88
2022-07-28T08:54:20.880Z,101010.69
2022-07-28T08:57:09.245Z,101011.41
2022-07-28T08:59:56.800Z,101007.34
2022-07-28T09:02:46.452Z,101002.59
2022-07-28T09:05:40.972Z,101005.25
2022-07-28T09:08:28.951Z,101007.75
2022-07-28T09:11:15.743Z,101004.44
2022-07-28T09:14:02.863Z,101002.06
2022-07-28T09:16:50.181Z,101002.09
2022-07-28T09:19:37.571Z,101009.94
2022-07-28T09:22:24.352Z,101001.25
2022-07-28T09:25:19.624Z,100999.88
2022-07-28T09:28:08.786Z,100998.19
2022-07-28T09:30:55.822Z,101004.28
2022-07-28T09:33:54.220Z,101007.97
2022-07-28T09:36:42.354Z,100998.06
2022-07-28T09:39:33.126Z,100999.75
2022-07-28T09:42:21.758Z,100993.28
2022-07-28T09:45:22.924Z,101002.19
2022-07-28T09:48:12.977Z,100994.34
2022-07-28T09:51:12.005Z,100999.00
2022-07-28T09:54:18.447Z,100999.44
2022-07-28T09:57:05.730Z,100996.28
2022-07-28T09:59:55.863Z,101000.09
2022-07-28T10:02:50.621Z,100991.41
2022-07-28T10:05:41.669Z,100993.09
2022-07-28T10:08:42.026Z,100985.09
2022-07-28T10:11:30.294Z,100983.22
2022-07-28T10:14:21.352Z,100984.53
2022-07-28T10:17:10.537Z,100980.78
2022-07-28T10:19:58.719Z,100980.59
2022-07-28T10:22:45.699Z,100972.84
2022-07-28T10:25:35.453Z,100964.53
2022-07-28T10:28:23.893Z,100968.69
2022-07-28T10:31:12.070Z,100969.19
2022-07-28T10:34:02.178Z,100969.59
2022-07-28T10:36:51.201Z,100969.28
2022-07-28T10:39:42.787Z,100963.06
2022-07-28T10:42:30.329Z,100958.66
2022-07-28T10:45:17.989Z,100955.75
2022-07-28T10:48:06.361Z,100949.31
2022-07-28T10:50:56.279Z,100946.59
2022-07-28T10:53:50.298Z,100948.38
2022-07-28T10:56:47.393Z,100946.22
2022-07-28T11:00:12.125Z,100944.53
2022-07-28T11:03:01.904Z,100940.81
2022-07-28T11:06:29.099Z,100940.59
2022-07-28T11:09:22.969Z,100941.50
2022-07-28T11:12:12.265Z,100935.25
2022-07-28T11:15:15.744Z,100930.09
2022-07-28T11:18:08.750Z,100922.59
2022-07-28T11:21:10.814Z,100933.25
2022-07-28T11:23:58.571Z,100919.56
2022-07-28T11:26:45.800Z,100916.41
2022-07-28T11:29:47.274Z,100927.09
2022-07-28T11:32:57.735Z,100927.75
2022-07-28T11:35:56.369Z,100924.53
2022-07-28T11:39:21.795Z,100919.38
2022-07-28T11:42:28.743Z,100915.72
2022-07-28T11:45:24.253Z,100906.69
2022-07-28T11:48:25.247Z,100901.56
2022-07-28T11:51:12.609Z,100904.53
2022-07-28T11:53:59.247Z,100904.69
2022-07-28T11:56:46.360Z,100894.25
2022-07-28T11:59:49.785Z,100887.50
2022-07-28T12:02:37.348Z,100888.09
2022-07-28T12:05:25.502Z,100886.09
2022-07-28T12:08:12.406Z,100882.44
2022-07-28T12:10:59.334Z,100867.03
2022-07-28T12:13:47.122Z,100872.75
2022-07-28T12:16:37.457Z,100872.41
2022-07-28T12:19:24.128Z,100867.13
2022-07-28T12:22:19.979Z,100875.19
2022-07-28T12:25:13.433Z,100875.75
2022-07-28T12:28:14.530Z,100868.69
2022-07-28T12:31:11.312Z,100859.91
2022-07-28T12:33:59.760Z,100867.25
2022-07-28T12:36:47.164Z,100860.97
2022-07-28T12:39:38.418Z,100855.34
2022-07-28T12:42:31.764Z,100856.81
2022-07-28T12:45:18.499Z,100856.59
2022-07-28T12:48:09.289Z,100847.75
2022-07-28T12:50:57.648Z,100842.28
2022-07-28T12:53:51.942Z,100849.44
2022-07-28T12:56:47.016Z,100847.91
2022-07-28T12:59:35.915Z,100854.97
2022-07-28T13:02:36.709Z,100844.25
2022-07-28T13:05:50.687Z,100839.78
2022-07-28T13:08:44.300Z,100847.16
2022-07-28T13:11:45.965Z,100844.03
2022-07-28T13:14:40.830Z,100839.03
2022-07-28T13:17:31.536Z,100828.94
2022-07-28T13:20:18.533Z,100823.88
2022-07-28T13:23:05.233Z,100829.94
2022-07-28T13:25:53.614Z,100827.25
2022-07-28T13:28:40.360Z,100830.44
2022-07-28T13:31:27.062Z,100812.84
2022-07-28T13:34:14.601Z,100829.31
2022-07-28T13:37:01.601Z,100822.38
2022-07-28T13:39:54.210Z,100816.13
2022-07-28T13:42:52.905Z,100816.53
2022-07-28T13:45:42.850Z,100816.34
2022-07-28T13:48:30.170Z,100810.59
2022-07-28T13:51:16.936Z,100810.53
2022-07-28T13:54:08.431Z,100809.28
2022-07-28T13:56:55.326Z,100805.44
2022-07-28T13:59:44.287Z,100801.25
2022-07-28T14:02:31.190Z,100799.59
2022-07-28T14:05:18.327Z,100781.28
2022-07-28T14:08:05.428Z,100792.44
2022-07-28T14:10:54.972Z,100788.19
2022-07-28T14:13:42.051Z,100780.41
2022-07-28T14:16:31.704Z,100777.03
2022-07-28T14:19:23.420Z,100780.75
2022-07-28T14:22:25.233Z,100773.63
2022-07-28T14:25:21.171Z,100772.06
2022-07-28T14:28:08.572Z,100772.97
2022-07-28T14:30:55.722Z,100776.84
2022-07-28T14:33:48.320Z,100770.97
2022-07-28T14:36:37.963Z,100776.34
2022-07-28T14:39:24.634Z,100778.56
2022-07-28T14:42:11.802Z,100767.75
2022-07-28T14:44:59.411Z,100774.06
2022-07-28T14:47:46.363Z,100773.97
2022-07-28T14:50:34.983Z,100765.09
2022-07-28T14:53:22.147Z,100764.84
2022-07-28T14:56:13.834Z,100758.09
2022-07-28T14:59:00.953Z,100751.66
2022-07-28T15:01:48.801Z,100759.78
2022-07-28T15:04:36.232Z,100759.22
2022-07-28T15:07:24.678Z,100765.91
2022-07-28T15:10:11.794Z,100748.59
2022-07-28T15:12:58.710Z,100745.22
2022-07-28T15:15:46.583Z,100756.59
2022-07-28T15:18:33.213Z,100746.97
2022-07-28T15:21:20.100Z,100751.34
2022-07-28T15:24:10.239Z,100747.28
2022-07-28T15:26:57.389Z,100750.47
2022-07-28T15:29:44.129Z,100739.50
2022-07-28T15:32:31.944Z,100743.75
2022-07-28T15:35:18.819Z,100744.69
2022-07-28T15:38:05.421Z,100745.41
2022-07-28T15:40:53.759Z,100738.31
2022-07-28T15:43:40.497Z,100743.53
2022-07-28T15:46:28.064Z,100736.00
2022-07-28T15:49:15.110Z,100731.78
2022-07-28T15:52:02.794Z,100733.31
2022-07-28T15:54:49.749Z,100729.81
2022-07-28T15:57:38.594Z,100725.88
2022-07-28T16:00:25.290Z,100722.94
2022-07-28T16:03:12.444Z,100719.63
2022-07-28T16:05:59.383Z,100724.28
2022-07-28T16:08:46.486Z,100720.78
2022-07-28T16:11:33.210Z,100710.28
2022-07-28T16:14:21.519Z,100715.16
2022-07-28T16:17:08.463Z,100711.44
2022-07-28T16:19:58.500Z,100709.19
2022-07-28T16:22:49.375Z,100721.03
2022-07-28T16:25:40.585Z,100710.59
2022-07-28T16:28:31.676Z,100717.94
2022-07-28T16:31:20.114Z,100710.19
2022-07-28T16:34:07.192Z,100715.97
2022-07-28T16:36:54.082Z,100710.03
2022-07-28T16:39:41.270Z,100711.88
2022-07-28T16:42:28.497Z,100705.34
2022-07-28T16:45:15.376Z,100707.94
2022-07-28T16:48:04.556Z,100713.34
2022-07-28T16:50:51.611Z,100714.88
2022-07-28T16:53:38.766Z,100714.44
2022-07-28T16:56:25.792Z,100717.56
2022-07-28T16:59:12.936Z,100710.78
2022-07-28T17:02:00.037Z,100713.53
2022-07-28T17:04:48.661Z,100705.75
2022-07-28T17:07:40.779Z,100709.94
2022-07-28T17:10:31.883Z,100710.06
2022-07-28T17:13:19.498Z,100710.19
2022-07-28T17:16:07.052Z,100712.22
2022-07-28T17:18:53.697Z,100712.31
2022-07-28T17:21:42.049Z,100709.88
2022-07-28T17:24:29.430Z,100707.66
2022-07-28T17:30:23.910Z,100710.13
2022-07-28T17:33:11.701Z,100708.28
2022-07-28T17:35:58.358Z,100708.94
2022-07-28T17:38:46.735Z,100716.13
2022-07-28T17:41:33.654Z,100710.69
2022-07-28T17:44:21.514Z,100714.34
2022-07-28T17:47:09.143Z,100709.88
2022-07-28T17:49:56.216Z,100709.31
2022-07-28T17:52:45.017Z,100709.72
2022-07-28T17:55:57.872Z,100708.66
2022-07-28T17:58:43.031Z,100706.50
2022-07-28T18:01:29.976Z,100716.41
2022-07-28T18:04:17.011Z,100712.31
2022-07-28T18:07:04.192Z,100717.50
2022-07-28T18:09:50.937Z,100715.25
2022-07-28T18:12:39.255Z,100712.41
2022-07-28T18:15:27.654Z,100722.66
2022-07-28T18:18:17.872Z,100719.19
2022-07-28T18:21:04.986Z,100716.22
2022-07-28T18:23:51.815Z,100716.72
2022-07-28T18:26:41.915Z,100722.97
2022-07-28T18:29:38.637Z,100716.91
2022-07-28T18:32:25.576Z,100718.94
2022-07-28T18:35:13.205Z,100714.66
2022-07-28T18:38:01.299Z,100724.94
2022-07-28T18:40:49.522Z,100725.34
2022-07-28T18:43:39.515Z,100725.28
2022-07-28T18:46:27.949Z,100722.75
2022-07-28T18:49:15.239Z,100721.31
2022-07-28T18:52:02.769Z,100721.28
2022-07-28T18:54:49.802Z,100718.78
2022-07-28T18:57:37.290Z,100725.69
2022-07-28T19:00:24.110Z,100726.38
2022-07-28T19:03:12.549Z,100720.16
2022-07-28T19:05:59.325Z,100720.00
2022-07-28T19:08:46.174Z,100725.19
2022-07-28T19:11:33.515Z,100719.94
2022-07-28T19:14:20.988Z,100725.78
2022-07-28T19:17:08.739Z,100724.91
2022-07-28T19:19:57.162Z,100722.63
2022-07-28T19:22:43.895Z,100733.66
2022-07-28T19:25:30.876Z,100729.59
2022-07-28T19:28:18.268Z,100728.72
2022-07-28T19:31:10.096Z,100741.09
2022-07-28T19:33:58.307Z,100730.31
2022-07-28T19:36:47.083Z,100739.31
2022-07-28T19:39:35.533Z,100740.53
2022-07-28T19:42:22.487Z,100742.56
2022-07-28T19:45:10.331Z,100748.16
2022-07-28T19:47:57.302Z,100753.31
2022-07-28T19:50:50.967Z,100754.28
2022-07-28T19:53:39.515Z,100754.72
2022-07-28T19:56:31.200Z,100748.31
2022-07-28T19:59:18.727Z,100756.34
2022-07-28T20:02:05.505Z,100758.06
2022-07-28T20:04:52.353Z,100765.84
2022-07-28T20:07:39.933Z,100770.69
2022-07-28T20:10:28.309Z,100770.00
2022-07-28T20:13:15.244Z,100771.59
2022-07-28T20:16:01.986Z,100771.47
2022-07-28T20:18:49.188Z,100770.03
2022-07-28T20:21:39.462Z,100782.31
2022-07-28T20:24:26.974Z,100781.84
2022-07-28T20:27:15.089Z,100776.84
2022-07-28T20:30:01.939Z,100779.28
2022-07-28T20:32:49.371Z,100780.00
2022-07-28T20:35:36.409Z,100775.75
2022-07-28T20:38:23.502Z,100782.91
2022-07-28T20:41:10.120Z,100779.13
2022-07-28T20:44:27.702Z,100779.31
2022-07-28T20:47:05.430Z,100776.66
2022-07-28T20:49:52.247Z,100780.31
2022-07-28T20:52:39.034Z,100767.28
2022-07-28T20:55:27.714Z,100775.66
2022-07-28T20:58:14.515Z,100782.47
2022-07-28T21:01:02.978Z,100787.91
2022-07-28T21:03:49.732Z,100783.63
2022-07-28T21:06:36.647Z,100784.00
2022-07-28T21:09:24.729Z,100787.69
2022-07-28T21:12:11.657Z,100779.28
2022-07-28T21:14:58.567Z,100790.72
2022-07-28T21:17:47.819Z,100788.34
2022-07-28T21:20:34.686Z,100792.09
2022-07-28T21:23:21.417Z,100805.16
2022-07-28T21:26:09.512Z,100808.81
2022-07-28T21:29:10.956Z,100806.44
2022-07-28T21:32:05.276Z,100806.47
2022-07-28T21:34:53.827Z,100813.06
2022-07-28T21:37:40.475Z,100817.81
2022-07-28T21:40:27.630Z,100821.00
2022-07-28T21:43:14.942Z,100818.91
2022-07-28T21:46:02.113Z,100821.44
2022-07-28T21:48:49.130Z,100820.63
2022-07-28T21:51:37.310Z,100831.31
2022-07-28T21:54:24.191Z,100828.34
2022-07-28T21:57:22.496Z,100833.47
2022-07-28T22:00:13.255Z,100832.16
2022-07-28T22:03:00.364Z,100832.00
2022-07-28T22:05:47.021Z,100832.53
2022-07-28T22:08:35.824Z,100838.50
2022-07-28T22:11:23.917Z,100829.88
2022-07-28T22:14:11.141Z,100840.75
2022-07-28T22:16:58.461Z,100836.06
2022-07-28T22:19:45.050Z,100832.00
2022-07-28T22:22:32.219Z,100842.97
2022-07-28T22:25:20.432Z,100843.84
2022-07-28T22:28:08.143Z,100845.75
2022-07-28T22:30:55.229Z,100855.22
2022-07-28T22:33:42.201Z,100858.09
2022-07-28T22:36:29.134Z,100859.47
2022-07-28T22:39:16.208Z,100860.09
2022-07-28T22:42:05.578Z,100860.31
2022-07-28T22:44:52.387Z,100853.78
2022-07-28T22:47:39.663Z,100857.31
2022-07-28T22:50:26.771Z,100860.31
2022-07-28T22:53:13.787Z,100862.09
2022-07-28T22:56:00.651Z,100862.84
2022-07-28T22:58:49.001Z,100861.03
2022-07-28T23:01:36.598Z,100857.97
2022-07-28T23:04:23.945Z,100860.50
2022-07-28T23:07:14.965Z,100860.31
2022-07-28T23:10:01.725Z,100867.75
2022-07-28T23:12:48.759Z,100875.50
2022-07-28T23:15:40.732Z,100877.75
2022-07-28T23:18:28.142Z,100873.63
2022-07-28T23:21:14.982Z,100874.00
2022-07-28T23:24:01.975Z,100866.47
2022-07-28T23:26:49.315Z,100864.13
2022-07-28T23:29:36.233Z,100872.78
2022-07-28T23:32:24.638Z,100859.84
2022-07-28T23:35:11.638Z,100856.44
2022-07-28T23:37:58.289Z,100863.41
2022-07-28T23:40:45.343Z,100865.16
2022-07-28T23:43:32.365Z,100862.38
2022-07-28T23:46:19.293Z,100862.84
2022-07-28T23:49:07.690Z,100859.50
2022-07-28T23:51:56.018Z,100855.78
2022-07-28T23:54:43.167Z,100859.88
2022-07-28T23:57:31.325Z,100871.47
